sensor_id;sensor_type;location;lat;lon;timestamp;temperature;humidity
27559;DHT22;15002;52.028;5.670;2023-09-12T00:02:07;23.70;99.90
27559;DHT22;15002;52.028;5.670;2023-09-12T00:04:33;23.70;99.90
27559;DHT22;15002;52.028;5.670;2023-09-12T00:06:58;23.80;99.90
27559;DHT22;15002;52.028;5.670;2023-09-12T00:09:24;23.80;99.90
27559;DHT22;15002;52.028;5.670;2023-09-12T00:11:49;23.40;99.90
27559;DHT22;15002;52.028;5.670;2023-09-12T00:14:16;23.40;99.90
27559;DHT22;15002;52.028;5.670;2023-09-12T00:16:42;23.20;99.90
27559;DHT22;15002;52.028;5.670;2023-09-12T00:19:08;23.10;99.90
27559;DHT22;15002;52.028;5.670;2023-09-12T00:21:34;23.00;99.90
27559;DHT22;15002;52.028;5.670;2023-09-12T00:23:59;22.90;99.90
27559;DHT22;15002;52.028;5.670;2023-09-12T00:26:25;23.10;99.90
27559;DHT22;15002;52.028;5.670;2023-09-12T00:28:50;23.20;99.90
27559;DHT22;15002;52.028;5.670;2023-09-12T00:31:16;23.20;99.90
27559;DHT22;15002;52.028;5.670;2023-09-12T00:33:42;23.20;99.90
27559;DHT22;15002;52.028;5.670;2023-09-12T00:36:07;23.30;99.90
27559;DHT22;15002;52.028;5.670;2023-09-12T00:38:33;23.30;99.90
27559;DHT22;15002;52.028;5.670;2023-09-12T00:40:59;23.10;99.90
27559;DHT22;15002;52.028;5.670;2023-09-12T00:43:24;23.00;99.90
27559;DHT22;15002;52.028;5.670;2023-09-12T00:45:50;23.00;99.90
27559;DHT22;15002;52.028;5.670;2023-09-12T00:48:17;23.00;99.90
27559;DHT22;15002;52.028;5.670;2023-09-12T00:50:43;23.00;99.90
27559;DHT22;15002;52.028;5.670;2023-09-12T00:53:09;23.20;99.90
27559;DHT22;15002;52.028;5.670;2023-09-12T00:55:37;23.40;99.90
27559;DHT22;15002;52.028;5.670;2023-09-12T00:58:04;23.30;99.90
27559;DHT22;15002;52.028;5.670;2023-09-12T01:00:30;23.30;99.90
27559;DHT22;15002;52.028;5.670;2023-09-12T01:02:56;23.50;99.90
27559;DHT22;15002;52.028;5.670;2023-09-12T01:05:22;23.70;99.90
27559;DHT22;15002;52.028;5.670;2023-09-12T01:07:48;23.60;99.90
27559;DHT22;15002;52.028;5.670;2023-09-12T01:10:14;23.40;99.90
27559;DHT22;15002;52.028;5.670;2023-09-12T01:12:39;23.40;99.90
27559;DHT22;15002;52.028;5.670;2023-09-12T01:15:06;23.70;99.90
27559;DHT22;15002;52.028;5.670;2023-09-12T01:17:39;23.50;99.90
27559;DHT22;15002;52.028;5.670;2023-09-12T01:20:06;23.50;99.90
27559;DHT22;15002;52.028;5.670;2023-09-12T01:28:30;23.00;99.90
27559;DHT22;15002;52.028;5.670;2023-09-12T01:31:01;22.90;99.90
27559;DHT22;15002;52.028;5.670;2023-09-12T01:33:28;22.90;99.90
27559;DHT22;15002;52.028;5.670;2023-09-12T01:35:54;22.70;99.90
27559;DHT22;15002;52.028;5.670;2023-09-12T01:38:21;22.60;99.90
27559;DHT22;15002;52.028;5.670;2023-09-12T01:40:50;22.70;99.90
27559;DHT22;15002;52.028;5.670;2023-09-12T01:43:19;22.70;99.90
27559;DHT22;15002;52.028;5.670;2023-09-12T01:45:46;22.70;99.90
27559;DHT22;15002;52.028;5.670;2023-09-12T01:48:14;22.70;99.90
27559;DHT22;15002;52.028;5.670;2023-09-12T01:50:42;22.90;99.90
27559;DHT22;15002;52.028;5.670;2023-09-12T01:53:08;22.90;99.90
27559;DHT22;15002;52.028;5.670;2023-09-12T01:55:34;22.70;99.90
27559;DHT22;15002;52.028;5.670;2023-09-12T01:58:01;22.70;99.90
27559;DHT22;15002;52.028;5.670;2023-09-12T02:00:27;22.50;99.90
27559;DHT22;15002;52.028;5.670;2023-09-12T02:02:53;22.60;99.90
27559;DHT22;15002;52.028;5.670;2023-09-12T02:05:21;22.60;99.90
27559;DHT22;15002;52.028;5.670;2023-09-12T02:07:48;22.40;99.90
27559;DHT22;15002;52.028;5.670;2023-09-12T02:10:14;22.50;99.90
27559;DHT22;15002;52.028;5.670;2023-09-12T02:12:40;22.50;99.90
27559;DHT22;15002;52.028;5.670;2023-09-12T02:15:06;22.50;99.90
27559;DHT22;15002;52.028;5.670;2023-09-12T02:17:32;22.50;99.90
27559;DHT22;15002;52.028;5.670;2023-09-12T02:19:57;22.60;99.90
27559;DHT22;15002;52.028;5.670;2023-09-12T02:22:23;22.60;99.90
27559;DHT22;15002;52.028;5.670;2023-09-12T02:24:49;22.50;99.90
27559;DHT22;15002;52.028;5.670;2023-09-12T02:27:15;22.50;99.90
27559;DHT22;15002;52.028;5.670;2023-09-12T02:29:42;22.30;99.90
27559;DHT22;15002;52.028;5.670;2023-09-12T02:32:08;22.30;99.90
27559;DHT22;15002;52.028;5.670;2023-09-12T02:34:34;22.20;99.90
27559;DHT22;15002;52.028;5.670;2023-09-12T02:37:00;22.10;99.90
27559;DHT22;15002;52.028;5.670;2023-09-12T02:39:25;22.10;99.90
27559;DHT22;15002;52.028;5.670;2023-09-12T02:41:51;22.10;99.90
27559;DHT22;15002;52.028;5.670;2023-09-12T02:44:17;22.20;99.90
27559;DHT22;15002;52.028;5.670;2023-09-12T02:46:42;22.20;99.90
27559;DHT22;15002;52.028;5.670;2023-09-12T02:49:08;22.10;99.90
27559;DHT22;15002;52.028;5.670;2023-09-12T02:51:33;22.10;99.90
27559;DHT22;15002;52.028;5.670;2023-09-12T02:53:59;21.90;99.90
27559;DHT22;15002;52.028;5.670;2023-09-12T02:56:25;21.80;99.90
27559;DHT22;15002;52.028;5.670;2023-09-12T02:58:50;21.80;99.90
27559;DHT22;15002;52.028;5.670;2023-09-12T03:01:20;21.80;99.90
27559;DHT22;15002;52.028;5.670;2023-09-12T03:03:46;21.80;99.90
27559;DHT22;15002;52.028;5.670;2023-09-12T03:06:12;21.80;99.90
27559;DHT22;15002;52.028;5.670;2023-09-12T03:08:40;21.90;99.90
27559;DHT22;15002;52.028;5.670;2023-09-12T03:11:06;21.90;99.90
27559;DHT22;15002;52.028;5.670;2023-09-12T03:13:33;21.80;99.90
27559;DHT22;15002;52.028;5.670;2023-09-12T03:15:59;21.90;99.90
27559;DHT22;15002;52.028;5.670;2023-09-12T03:18:25;21.80;99.90
27559;DHT22;15002;52.028;5.670;2023-09-12T03:20:51;21.90;99.90
27559;DHT22;15002;52.028;5.670;2023-09-12T03:23:17;21.90;99.90
27559;DHT22;15002;52.028;5.670;2023-09-12T03:25:42;22.00;99.90
27559;DHT22;15002;52.028;5.670;2023-09-12T03:28:08;22.00;99.90
27559;DHT22;15002;52.028;5.670;2023-09-12T03:30:35;22.00;99.90
27559;DHT22;15002;52.028;5.670;2023-09-12T03:33:00;21.90;99.90
27559;DHT22;15002;52.028;5.670;2023-09-12T03:35:28;21.90;99.90
27559;DHT22;15002;52.028;5.670;2023-09-12T03:37:53;21.70;99.90
27559;DHT22;15002;52.028;5.670;2023-09-12T03:40:19;21.60;99.90
27559;DHT22;15002;52.028;5.670;2023-09-12T03:42:45;21.80;99.90
27559;DHT22;15002;52.028;5.670;2023-09-12T03:45:10;21.80;99.90
27559;DHT22;15002;52.028;5.670;2023-09-12T03:47:36;22.00;99.90
27559;DHT22;15002;52.028;5.670;2023-09-12T03:50:02;21.90;99.90
27559;DHT22;15002;52.028;5.670;2023-09-12T03:52:29;21.90;99.90
27559;DHT22;15002;52.028;5.670;2023-09-12T03:54:54;21.80;99.90
27559;DHT22;15002;52.028;5.670;2023-09-12T03:57:20;21.90;99.90
27559;DHT22;15002;52.028;5.670;2023-09-12T03:59:46;21.80;99.90
27559;DHT22;15002;52.028;5.670;2023-09-12T04:02:12;21.80;99.90
27559;DHT22;15002;52.028;5.670;2023-09-12T04:04:38;21.80;99.90
27559;DHT22;15002;52.028;5.670;2023-09-12T04:07:04;21.80;99.90
27559;DHT22;15002;52.028;5.670;2023-09-12T04:09:30;21.80;99.90
27559;DHT22;15002;52.028;5.670;2023-09-12T04:11:56;21.80;99.90
27559;DHT22;15002;52.028;5.670;2023-09-12T04:14:21;21.80;99.90
27559;DHT22;15002;52.028;5.670;2023-09-12T04:16:47;21.80;99.90
27559;DHT22;15002;52.028;5.670;2023-09-12T04:19:14;21.90;99.90
27559;DHT22;15002;52.028;5.670;2023-09-12T04:21:40;22.00;99.90
27559;DHT22;15002;52.028;5.670;2023-09-12T04:24:06;21.90;99.90
27559;DHT22;15002;52.028;5.670;2023-09-12T04:26:32;21.70;99.90
27559;DHT22;15002;52.028;5.670;2023-09-12T04:28:58;21.70;99.90
27559;DHT22;15002;52.028;5.670;2023-09-12T04:31:23;21.70;99.90
27559;DHT22;15002;52.028;5.670;2023-09-12T04:33:53;21.70;99.90
27559;DHT22;15002;52.028;5.670;2023-09-12T04:36:19;21.60;99.90
27559;DHT22;15002;52.028;5.670;2023-09-12T04:38:45;21.50;99.90
27559;DHT22;15002;52.028;5.670;2023-09-12T04:41:12;21.60;99.90
27559;DHT22;15002;52.028;5.670;2023-09-12T04:43:41;21.60;99.90
27559;DHT22;15002;52.028;5.670;2023-09-12T04:46:07;21.60;99.90
27559;DHT22;15002;52.028;5.670;2023-09-12T04:48:32;21.40;99.90
27559;DHT22;15002;52.028;5.670;2023-09-12T04:50:58;21.30;99.90
27559;DHT22;15002;52.028;5.670;2023-09-12T04:53:24;21.30;99.90
27559;DHT22;15002;52.028;5.670;2023-09-12T04:55:52;21.50;99.90
27559;DHT22;15002;52.028;5.670;2023-09-12T04:58:18;21.50;99.90
27559;DHT22;15002;52.028;5.670;2023-09-12T05:00:45;21.40;99.90
27559;DHT22;15002;52.028;5.670;2023-09-12T05:03:10;21.50;99.90
27559;DHT22;15002;52.028;5.670;2023-09-12T05:05:36;21.70;99.90
27559;DHT22;15002;52.028;5.670;2023-09-12T05:08:02;21.70;99.90
27559;DHT22;15002;52.028;5.670;2023-09-12T05:10:28;21.70;99.90
27559;DHT22;15002;52.028;5.670;2023-09-12T05:12:53;21.70;99.90
27559;DHT22;15002;52.028;5.670;2023-09-12T05:15:19;21.80;99.90
27559;DHT22;15002;52.028;5.670;2023-09-12T05:17:44;21.60;99.90
27559;DHT22;15002;52.028;5.670;2023-09-12T05:20:10;21.50;99.90
27559;DHT22;15002;52.028;5.670;2023-09-12T05:22:36;21.50;99.90
27559;DHT22;15002;52.028;5.670;2023-09-12T05:25:01;21.50;99.90
27559;DHT22;15002;52.028;5.670;2023-09-12T05:27:27;21.60;99.90
27559;DHT22;15002;52.028;5.670;2023-09-12T05:29:53;21.70;99.90
27559;DHT22;15002;52.028;5.670;2023-09-12T05:32:18;21.70;99.90
27559;DHT22;15002;52.028;5.670;2023-09-12T05:34:44;21.70;99.90
27559;DHT22;15002;52.028;5.670;2023-09-12T05:37:10;21.70;99.90
27559;DHT22;15002;52.028;5.670;2023-09-12T05:39:36;21.80;99.90
27559;DHT22;15002;52.028;5.670;2023-09-12T05:42:02;21.90;99.90
27559;DHT22;15002;52.028;5.670;2023-09-12T05:44:27;22.00;99.90
27559;DHT22;15002;52.028;5.670;2023-09-12T05:46:53;22.20;99.90
27559;DHT22;15002;52.028;5.670;2023-09-12T05:49:19;22.10;99.90
27559;DHT22;15002;52.028;5.670;2023-09-12T05:51:45;22.10;99.90
27559;DHT22;15002;52.028;5.670;2023-09-12T05:54:11;22.10;99.90
27559;DHT22;15002;52.028;5.670;2023-09-12T05:56:39;22.00;99.90
27559;DHT22;15002;52.028;5.670;2023-09-12T05:59:05;22.10;99.90
27559;DHT22;15002;52.028;5.670;2023-09-12T06:01:31;22.10;99.90
27559;DHT22;15002;52.028;5.670;2023-09-12T06:03:57;22.10;99.90
27559;DHT22;15002;52.028;5.670;2023-09-12T06:06:22;22.10;99.90
27559;DHT22;15002;52.028;5.670;2023-09-12T06:08:48;22.10;99.90
27559;DHT22;15002;52.028;5.670;2023-09-12T06:11:14;22.10;99.90
27559;DHT22;15002;52.028;5.670;2023-09-12T06:13:39;22.10;99.90
27559;DHT22;15002;52.028;5.670;2023-09-12T06:16:06;22.10;99.90
27559;DHT22;15002;52.028;5.670;2023-09-12T06:18:34;22.20;99.90
27559;DHT22;15002;52.028;5.670;2023-09-12T06:21:00;22.20;99.90
27559;DHT22;15002;52.028;5.670;2023-09-12T06:23:30;22.30;99.90
27559;DHT22;15002;52.028;5.670;2023-09-12T06:25:56;22.10;99.90
27559;DHT22;15002;52.028;5.670;2023-09-12T06:28:29;22.20;99.90
27559;DHT22;15002;52.028;5.670;2023-09-12T06:30:56;22.20;99.90
27559;DHT22;15002;52.028;5.670;2023-09-12T06:33:23;22.20;99.90
27559;DHT22;15002;52.028;5.670;2023-09-12T06:35:49;22.20;99.90
27559;DHT22;15002;52.028;5.670;2023-09-12T06:38:15;22.30;99.90
27559;DHT22;15002;52.028;5.670;2023-09-12T06:40:42;22.30;99.90
27559;DHT22;15002;52.028;5.670;2023-09-12T06:43:08;22.20;99.90
27559;DHT22;15002;52.028;5.670;2023-09-12T06:45:34;22.20;99.90
27559;DHT22;15002;52.028;5.670;2023-09-12T06:48:05;22.20;99.90
27559;DHT22;15002;52.028;5.670;2023-09-12T06:50:31;22.20;99.90
27559;DHT22;15002;52.028;5.670;2023-09-12T06:52:57;22.30;99.90
27559;DHT22;15002;52.028;5.670;2023-09-12T06:55:23;22.40;99.90
27559;DHT22;15002;52.028;5.670;2023-09-12T06:57:49;22.50;99.90
27559;DHT22;15002;52.028;5.670;2023-09-12T07:00:15;22.50;99.90
27559;DHT22;15002;52.028;5.670;2023-09-12T07:02:42;22.60;99.90
27559;DHT22;15002;52.028;5.670;2023-09-12T07:05:08;22.50;99.90
27559;DHT22;15002;52.028;5.670;2023-09-12T07:07:33;22.50;99.90
27559;DHT22;15002;52.028;5.670;2023-09-12T07:09:59;22.50;99.90
27559;DHT22;15002;52.028;5.670;2023-09-12T07:12:26;22.50;99.90
27559;DHT22;15002;52.028;5.670;2023-09-12T07:14:52;22.50;99.90
27559;DHT22;15002;52.028;5.670;2023-09-12T07:17:17;22.80;99.90
27559;DHT22;15002;52.028;5.670;2023-09-12T07:19:43;22.80;99.90
27559;DHT22;15002;52.028;5.670;2023-09-12T07:22:09;22.80;99.90
27559;DHT22;15002;52.028;5.670;2023-09-12T07:24:35;22.60;99.90
27559;DHT22;15002;52.028;5.670;2023-09-12T07:27:00;22.70;99.90
27559;DHT22;15002;52.028;5.670;2023-09-12T07:29:26;22.90;99.90
27559;DHT22;15002;52.028;5.670;2023-09-12T07:31:53;23.20;99.90
27559;DHT22;15002;52.028;5.670;2023-09-12T07:34:20;23.30;99.90
27559;DHT22;15002;52.028;5.670;2023-09-12T07:36:46;23.20;99.90
27559;DHT22;15002;52.028;5.670;2023-09-12T07:39:11;23.00;99.90
27559;DHT22;15002;52.028;5.670;2023-09-12T07:41:37;23.00;99.90
27559;DHT22;15002;52.028;5.670;2023-09-12T07:44:03;23.00;99.90
27559;DHT22;15002;52.028;5.670;2023-09-12T07:46:30;23.10;99.90
27559;DHT22;15002;52.028;5.670;2023-09-12T07:48:56;23.30;99.90
27559;DHT22;15002;52.028;5.670;2023-09-12T07:51:22;23.40;99.90
27559;DHT22;15002;52.028;5.670;2023-09-12T07:53:48;23.10;99.90
27559;DHT22;15002;52.028;5.670;2023-09-12T07:56:14;23.00;99.90
27559;DHT22;15002;52.028;5.670;2023-09-12T07:58:39;23.20;99.90
27559;DHT22;15002;52.028;5.670;2023-09-12T08:01:09;23.30;99.90
27559;DHT22;15002;52.028;5.670;2023-09-12T08:03:35;23.20;99.90
27559;DHT22;15002;52.028;5.670;2023-09-12T08:06:02;23.30;99.90
27559;DHT22;15002;52.028;5.670;2023-09-12T08:08:28;23.30;99.90
27559;DHT22;15002;52.028;5.670;2023-09-12T08:10:54;23.50;99.90
27559;DHT22;15002;52.028;5.670;2023-09-12T08:13:19;23.60;99.90
27559;DHT22;15002;52.028;5.670;2023-09-12T08:15:45;24.10;99.90
27559;DHT22;15002;52.028;5.670;2023-09-12T08:18:11;24.60;99.90
27559;DHT22;15002;52.028;5.670;2023-09-12T08:20:37;24.90;99.90
27559;DHT22;15002;52.028;5.670;2023-09-12T08:23:03;25.10;99.90
27559;DHT22;15002;52.028;5.670;2023-09-12T08:25:29;25.20;99.90
27559;DHT22;15002;52.028;5.670;2023-09-12T08:27:55;25.50;99.90
27559;DHT22;15002;52.028;5.670;2023-09-12T08:30:21;25.80;99.90
27559;DHT22;15002;52.028;5.670;2023-09-12T08:32:46;26.00;99.90
27559;DHT22;15002;52.028;5.670;2023-09-12T08:35:13;26.30;99.90
27559;DHT22;15002;52.028;5.670;2023-09-12T08:37:42;26.40;99.90
27559;DHT22;15002;52.028;5.670;2023-09-12T08:40:09;26.20;99.90
27559;DHT22;15002;52.028;5.670;2023-09-12T08:42:45;26.40;99.90
27559;DHT22;15002;52.028;5.670;2023-09-12T08:45:18;26.50;99.90
27559;DHT22;15002;52.028;5.670;2023-09-12T08:47:48;26.70;99.90
27559;DHT22;15002;52.028;5.670;2023-09-12T08:50:15;26.30;99.90
27559;DHT22;15002;52.028;5.670;2023-09-12T08:52:43;26.40;99.90
27559;DHT22;15002;52.028;5.670;2023-09-12T08:55:09;26.60;99.90
27559;DHT22;15002;52.028;5.670;2023-09-12T08:57:41;26.70;99.90
27559;DHT22;15002;52.028;5.670;2023-09-12T09:00:07;26.80;99.90
27559;DHT22;15002;52.028;5.670;2023-09-12T09:02:43;26.90;99.90
27559;DHT22;15002;52.028;5.670;2023-09-12T09:05:10;26.90;99.90
27559;DHT22;15002;52.028;5.670;2023-09-12T09:07:42;26.70;99.90
27559;DHT22;15002;52.028;5.670;2023-09-12T09:10:16;26.90;99.90
27559;DHT22;15002;52.028;5.670;2023-09-12T09:12:44;27.10;99.90
27559;DHT22;15002;52.028;5.670;2023-09-12T09:15:29;27.30;99.90
27559;DHT22;15002;52.028;5.670;2023-09-12T09:17:57;27.60;99.90
27559;DHT22;15002;52.028;5.670;2023-09-12T09:20:33;27.60;99.90
27559;DHT22;15002;52.028;5.670;2023-09-12T09:23:07;27.40;99.90
27559;DHT22;15002;52.028;5.670;2023-09-12T09:25:39;27.60;99.90
27559;DHT22;15002;52.028;5.670;2023-09-12T09:28:05;27.60;99.90
27559;DHT22;15002;52.028;5.670;2023-09-12T09:30:44;27.70;99.90
27559;DHT22;15002;52.028;5.670;2023-09-12T09:33:11;27.80;99.90
27559;DHT22;15002;52.028;5.670;2023-09-12T09:35:37;27.70;99.90
27559;DHT22;15002;52.028;5.670;2023-09-12T09:38:05;27.80;99.90
27559;DHT22;15002;52.028;5.670;2023-09-12T09:40:32;27.80;99.90
27559;DHT22;15002;52.028;5.670;2023-09-12T09:43:00;28.00;99.90
27559;DHT22;15002;52.028;5.670;2023-09-12T09:45:30;28.00;99.90
27559;DHT22;15002;52.028;5.670;2023-09-12T09:48:04;28.10;99.90
27559;DHT22;15002;52.028;5.670;2023-09-12T09:50:33;28.00;99.90
27559;DHT22;15002;52.028;5.670;2023-09-12T09:53:01;27.90;99.90
27559;DHT22;15002;52.028;5.670;2023-09-12T09:55:27;27.90;99.90
27559;DHT22;15002;52.028;5.670;2023-09-12T09:57:52;28.00;99.90
27559;DHT22;15002;52.028;5.670;2023-09-12T10:00:20;27.90;99.90
27559;DHT22;15002;52.028;5.670;2023-09-12T10:02:50;28.10;99.90
27559;DHT22;15002;52.028;5.670;2023-09-12T10:05:17;28.10;99.90
27559;DHT22;15002;52.028;5.670;2023-09-12T10:07:47;28.20;99.90
27559;DHT22;15002;52.028;5.670;2023-09-12T10:10:16;28.30;99.90
27559;DHT22;15002;52.028;5.670;2023-09-12T10:12:56;28.30;99.90
27559;DHT22;15002;52.028;5.670;2023-09-12T10:15:23;28.20;99.90
27559;DHT22;15002;52.028;5.670;2023-09-12T10:17:58;28.50;99.90
27559;DHT22;15002;52.028;5.670;2023-09-12T10:20:47;28.50;99.90
27559;DHT22;15002;52.028;5.670;2023-09-12T10:23:20;28.10;99.90
27559;DHT22;15002;52.028;5.670;2023-09-12T10:25:49;27.90;99.90
27559;DHT22;15002;52.028;5.670;2023-09-12T10:28:17;27.70;99.90
27559;DHT22;15002;52.028;5.670;2023-09-12T10:30:44;27.60;99.90
27559;DHT22;15002;52.028;5.670;2023-09-12T10:33:11;27.40;99.90
27559;DHT22;15002;52.028;5.670;2023-09-12T10:35:38;27.60;99.90
27559;DHT22;15002;52.028;5.670;2023-09-12T10:38:05;27.80;99.90
27559;DHT22;15002;52.028;5.670;2023-09-12T10:40:36;27.90;99.90
27559;DHT22;15002;52.028;5.670;2023-09-12T10:43:03;28.00;99.90
27559;DHT22;15002;52.028;5.670;2023-09-12T10:45:31;28.10;99.90
27559;DHT22;15002;52.028;5.670;2023-09-12T10:47:58;28.30;99.90
27559;DHT22;15002;52.028;5.670;2023-09-12T10:50:24;28.10;99.90
27559;DHT22;15002;52.028;5.670;2023-09-12T10:52:50;28.00;99.90
27559;DHT22;15002;52.028;5.670;2023-09-12T10:55:17;28.10;99.90
27559;DHT22;15002;52.028;5.670;2023-09-12T10:58:06;28.30;99.90
27559;DHT22;15002;52.028;5.670;2023-09-12T11:00:32;28.10;99.90
27559;DHT22;15002;52.028;5.670;2023-09-12T11:05:54;28.40;99.90
27559;DHT22;15002;52.028;5.670;2023-09-12T11:08:20;28.10;99.90
27559;DHT22;15002;52.028;5.670;2023-09-12T11:11:27;28.00;99.90
27559;DHT22;15002;52.028;5.670;2023-09-12T11:14:10;27.80;99.90
27559;DHT22;15002;52.028;5.670;2023-09-12T11:16:35;28.00;99.90
27559;DHT22;15002;52.028;5.670;2023-09-12T11:19:18;28.00;99.90
27559;DHT22;15002;52.028;5.670;2023-09-12T11:21:51;28.10;99.90
27559;DHT22;15002;52.028;5.670;2023-09-12T11:24:18;28.10;99.90
27559;DHT22;15002;52.028;5.670;2023-09-12T11:26:58;28.00;99.90
27559;DHT22;15002;52.028;5.670;2023-09-12T11:29:36;28.00;99.90
27559;DHT22;15002;52.028;5.670;2023-09-12T11:32:02;28.00;99.90
27559;DHT22;15002;52.028;5.670;2023-09-12T11:34:51;27.80;99.90
27559;DHT22;15002;52.028;5.670;2023-09-12T11:37:26;28.00;99.90
27559;DHT22;15002;52.028;5.670;2023-09-12T11:39:53;28.00;99.90
27559;DHT22;15002;52.028;5.670;2023-09-12T11:42:19;28.20;99.90
27559;DHT22;15002;52.028;5.670;2023-09-12T11:44:44;28.30;99.90
27559;DHT22;15002;52.028;5.670;2023-09-12T11:47:10;28.10;99.90
27559;DHT22;15002;52.028;5.670;2023-09-12T11:49:39;28.20;99.90
27559;DHT22;15002;52.028;5.670;2023-09-12T11:52:13;28.60;99.90
27559;DHT22;15002;52.028;5.670;2023-09-12T11:54:40;28.50;99.90
27559;DHT22;15002;52.028;5.670;2023-09-12T11:57:10;28.90;99.90
27559;DHT22;15002;52.028;5.670;2023-09-12T11:59:41;28.90;99.90
27559;DHT22;15002;52.028;5.670;2023-09-12T12:02:11;29.00;99.90
27559;DHT22;15002;52.028;5.670;2023-09-12T12:04:37;29.30;99.90
27559;DHT22;15002;52.028;5.670;2023-09-12T12:07:03;29.60;99.90
27559;DHT22;15002;52.028;5.670;2023-09-12T12:09:30;28.90;99.90
27559;DHT22;15002;52.028;5.670;2023-09-12T12:11:56;28.90;99.90
27559;DHT22;15002;52.028;5.670;2023-09-12T12:14:26;29.00;99.90
27559;DHT22;15002;52.028;5.670;2023-09-12T12:16:52;29.00;99.90
27559;DHT22;15002;52.028;5.670;2023-09-12T12:19:18;28.90;99.90
27559;DHT22;15002;52.028;5.670;2023-09-12T12:21:44;28.80;99.90
27559;DHT22;15002;52.028;5.670;2023-09-12T12:24:11;28.60;99.90
27559;DHT22;15002;52.028;5.670;2023-09-12T12:26:41;28.60;99.90
27559;DHT22;15002;52.028;5.670;2023-09-12T12:29:09;28.40;99.90
27559;DHT22;15002;52.028;5.670;2023-09-12T12:31:35;28.70;99.90
27559;DHT22;15002;52.028;5.670;2023-09-12T12:34:01;29.00;99.90
27559;DHT22;15002;52.028;5.670;2023-09-12T12:36:27;28.80;99.90
27559;DHT22;15002;52.028;5.670;2023-09-12T12:38:53;28.50;99.90
27559;DHT22;15002;52.028;5.670;2023-09-12T12:41:29;28.20;99.90
27559;DHT22;15002;52.028;5.670;2023-09-12T12:44:01;28.30;99.90
27559;DHT22;15002;52.028;5.670;2023-09-12T12:46:27;28.20;99.90
27559;DHT22;15002;52.028;5.670;2023-09-12T12:48:54;28.10;99.90
27559;DHT22;15002;52.028;5.670;2023-09-12T12:51:21;28.00;99.90
27559;DHT22;15002;52.028;5.670;2023-09-12T12:53:50;28.20;99.90
27559;DHT22;15002;52.028;5.670;2023-09-12T12:56:25;28.20;99.90
27559;DHT22;15002;52.028;5.670;2023-09-12T12:58:56;27.90;99.90
27559;DHT22;15002;52.028;5.670;2023-09-12T13:01:24;27.70;99.90
27559;DHT22;15002;52.028;5.670;2023-09-12T13:03:50;27.60;99.90
27559;DHT22;15002;52.028;5.670;2023-09-12T13:06:16;27.80;99.90
27559;DHT22;15002;52.028;5.670;2023-09-12T13:08:46;28.00;99.90
27559;DHT22;15002;52.028;5.670;2023-09-12T13:11:14;28.00;99.90
27559;DHT22;15002;52.028;5.670;2023-09-12T13:13:41;28.00;99.90
27559;DHT22;15002;52.028;5.670;2023-09-12T13:16:09;28.10;99.90
27559;DHT22;15002;52.028;5.670;2023-09-12T13:18:36;28.00;99.90
27559;DHT22;15002;52.028;5.670;2023-09-12T13:21:02;28.00;99.90
27559;DHT22;15002;52.028;5.670;2023-09-12T13:23:28;28.00;99.90
27559;DHT22;15002;52.028;5.670;2023-09-12T13:25:55;28.10;99.90
27559;DHT22;15002;52.028;5.670;2023-09-12T13:28:21;28.30;99.90
27559;DHT22;15002;52.028;5.670;2023-09-12T13:30:51;28.40;99.90
27559;DHT22;15002;52.028;5.670;2023-09-12T13:33:16;28.60;99.90
27559;DHT22;15002;52.028;5.670;2023-09-12T13:35:42;28.60;99.90
27559;DHT22;15002;52.028;5.670;2023-09-12T13:38:08;28.30;99.90
27559;DHT22;15002;52.028;5.670;2023-09-12T13:40:38;28.40;99.90
27559;DHT22;15002;52.028;5.670;2023-09-12T13:43:05;28.60;99.90
27559;DHT22;15002;52.028;5.670;2023-09-12T13:45:30;28.60;99.90
27559;DHT22;15002;52.028;5.670;2023-09-12T13:47:57;28.40;99.90
27559;DHT22;15002;52.028;5.670;2023-09-12T13:50:24;28.50;99.90
27559;DHT22;15002;52.028;5.670;2023-09-12T13:52:49;28.40;99.90
27559;DHT22;15002;52.028;5.670;2023-09-12T13:55:15;28.70;99.90
27559;DHT22;15002;52.028;5.670;2023-09-12T13:57:42;28.60;99.90
27559;DHT22;15002;52.028;5.670;2023-09-12T14:00:08;28.40;99.90
27559;DHT22;15002;52.028;5.670;2023-09-12T14:02:34;28.40;99.90
27559;DHT22;15002;52.028;5.670;2023-09-12T14:04:59;28.50;99.90
27559;DHT22;15002;52.028;5.670;2023-09-12T14:07:26;28.40;99.90
27559;DHT22;15002;52.028;5.670;2023-09-12T14:09:52;28.40;99.90
27559;DHT22;15002;52.028;5.670;2023-09-12T14:12:24;28.40;99.90
27559;DHT22;15002;52.028;5.670;2023-09-12T14:14:49;28.70;99.90
27559;DHT22;15002;52.028;5.670;2023-09-12T14:17:15;28.50;99.90
27559;DHT22;15002;52.028;5.670;2023-09-12T14:19:41;28.40;99.90
27559;DHT22;15002;52.028;5.670;2023-09-12T14:22:06;28.20;99.90
27559;DHT22;15002;52.028;5.670;2023-09-12T14:24:32;28.10;99.90
27559;DHT22;15002;52.028;5.670;2023-09-12T14:26:58;28.20;99.90
27559;DHT22;15002;52.028;5.670;2023-09-12T14:29:24;28.20;99.90
27559;DHT22;15002;52.028;5.670;2023-09-12T14:31:52;28.00;99.90
27559;DHT22;15002;52.028;5.670;2023-09-12T14:34:23;28.00;99.90
27559;DHT22;15002;52.028;5.670;2023-09-12T14:36:54;27.90;99.90
27559;DHT22;15002;52.028;5.670;2023-09-12T14:39:21;27.80;99.90
27559;DHT22;15002;52.028;5.670;2023-09-12T14:41:46;27.90;99.90
27559;DHT22;15002;52.028;5.670;2023-09-12T14:44:26;28.00;99.90
27559;DHT22;15002;52.028;5.670;2023-09-12T14:46:53;28.20;99.90
27559;DHT22;15002;52.028;5.670;2023-09-12T14:49:19;28.00;99.90
27559;DHT22;15002;52.028;5.670;2023-09-12T14:51:45;28.00;99.90
27559;DHT22;15002;52.028;5.670;2023-09-12T14:54:11;28.10;99.90
27559;DHT22;15002;52.028;5.670;2023-09-12T14:56:36;28.00;99.90
27559;DHT22;15002;52.028;5.670;2023-09-12T14:59:04;27.90;99.90
27559;DHT22;15002;52.028;5.670;2023-09-12T15:01:30;27.90;99.90
27559;DHT22;15002;52.028;5.670;2023-09-12T15:03:55;28.00;99.90
27559;DHT22;15002;52.028;5.670;2023-09-12T15:06:22;28.00;99.90
27559;DHT22;15002;52.028;5.670;2023-09-12T15:08:47;28.00;99.90
27559;DHT22;15002;52.028;5.670;2023-09-12T15:11:14;27.90;99.90
27559;DHT22;15002;52.028;5.670;2023-09-12T15:13:39;28.00;99.90
27559;DHT22;15002;52.028;5.670;2023-09-12T15:16:05;27.90;99.90
27559;DHT22;15002;52.028;5.670;2023-09-12T15:18:31;28.00;99.90
27559;DHT22;15002;52.028;5.670;2023-09-12T15:20:57;28.00;99.90
27559;DHT22;15002;52.028;5.670;2023-09-12T15:23:23;27.90;99.90
27559;DHT22;15002;52.028;5.670;2023-09-12T15:25:50;27.90;99.90
27559;DHT22;15002;52.028;5.670;2023-09-12T15:28:16;27.90;99.90
27559;DHT22;15002;52.028;5.670;2023-09-12T15:30:42;28.00;99.90
27559;DHT22;15002;52.028;5.670;2023-09-12T15:33:07;27.90;99.90
27559;DHT22;15002;52.028;5.670;2023-09-12T15:35:33;27.70;99.90
27559;DHT22;15002;52.028;5.670;2023-09-12T15:37:59;27.50;99.90
27559;DHT22;15002;52.028;5.670;2023-09-12T15:40:24;27.50;99.90